Please enter the email address associated with your User account. Your username will be emailed to the email address on file.

METAR TAF

[Source: ADDS]
METAR
LFCR 100530Z AUTO 08004KT 060V130 CAVOK 20/13 Q1015 NOSIG =
LFCR 100500Z 1006/1106 11005KT CAVOK BECMG 1013/1015 FEW060CB PROB30 TEMPO 1016/1020 14020G30KT TSRA SCT045CB PROB30 TEMPO 1016/1018 TSRAGR BECMG 1100/1102 CAVOK LFBA 100530Z AUTO 26005KT 230V290 9999 BKN010/// OVC230/// ///CB 22/20 Q1012 =
LFSL 100530Z AUTO 18006KT CAVOK 23/16 Q1014 NOSIG =
LFSL 100500Z 1006/1015 VRB03KT CAVOK LFLW 100500Z AUTO 09007KT 9999 NCD 19/15 Q1016 =
LFLW 100500Z 1006/1015 10008KT CAVOK
TAF
LFCR 100500Z 1006/1106 11005KT CAVOK BECMG 1013/1015 FEW060CB PROB30 TEMPO 1016/1020 14020G30KT TSRA SCT045CB PROB30 TEMPO 1016/1018 TSRAGR BECMG 1100/1102 CAVOK =
LFSL 100500Z 1006/1015 VRB03KT CAVOK =
LFLW 100500Z 1006/1015 10008KT CAVOK =
SR / SS: 04:52 / 19:06 UTC (LFCC 2020-08-10)